Time;durP1;ratioP1;P1;durP2;ratioP2;P2;SDS_P1;SDS_P2;PMS_P1;PMS_P2;Temp;Humidity;BMP_temperature;BMP_pressure;BME280_temperature;BME280_humidity;BME280_pressure;Samples;Min_cycle;Max_cycle;Signal;HPM_P1;HPM_P2
2022/02/04 00:20:34;;;;;;;7.25;4.75;;;;;;;18.69;50.31;101179.88;5012885;28;20125;-71
2022/02/04 00:23:15;;;;;;;7.95;4.78;;;;;;;18.67;50.49;101177.38;5012671;28;20509;-72
2022/02/04 00:28:50;;;;;;;6.82;4.80;;;;;;;18.62;50.51;101158.41;5012639;28;20057;-72
2022/02/04 00:33:46;;;;;;;6.80;4.53;;;;;;;18.59;50.66;101163.91;5013094;28;20021;-73
2022/02/04 00:36:19;;;;;;;6.85;4.90;;;;;;;18.58;50.66;101164.91;5012378;28;20112;-72
2022/02/04 00:38:51;;;;;;;6.53;4.53;;;;;;;18.58;50.63;101158.75;5012798;28;20038;-73
2022/02/04 00:41:20;;;;;;;7.25;4.90;;;;;;;18.56;50.57;101161.53;5012655;28;20462;-73
2022/02/04 00:43:48;;;;;;;9.52;5.00;;;;;;;18.55;50.75;101157.22;5013082;28;20046;-73
2022/02/04 00:46:20;;;;;;;9.02;5.10;;;;;;;18.53;50.52;101148.56;5013962;28;20026;-73
2022/02/04 00:49:01;;;;;;;7.85;4.63;;;;;;;18.53;50.51;101153.00;5013826;28;20393;-71
2022/02/04 00:52:00;;;;;;;5.97;4.38;;;;;;;18.51;50.83;101145.22;5013021;28;20208;-72
2022/02/04 00:54:29;;;;;;;6.32;4.20;;;;;;;18.49;50.54;101142.69;5012137;28;20398;-72
2022/02/04 01:26:41;;;;;;;6.25;4.07;;;;;;;18.31;50.67;101110.66;5015943;28;20553;-73
2022/02/04 01:29:08;;;;;;;7.55;4.40;;;;;;;18.34;50.65;101111.38;5014991;28;20469;-73
2022/02/04 01:31:34;;;;;;;6.00;4.40;;;;;;;18.33;50.42;101120.28;5015775;28;20069;-73
2022/02/04 01:33:59;;;;;;;6.40;4.60;;;;;;;18.31;50.67;101117.75;5015554;28;20068;-72
2022/02/04 01:36:24;;;;;;;6.45;3.88;;;;;;;18.29;50.48;101135.47;5014594;28;20371;-73
2022/02/04 01:38:50;;;;;;;7.03;4.27;;;;;;;18.29;50.68;101138.97;5015453;28;20022;-73
2022/02/04 01:41:15;;;;;;;6.35;4.25;;;;;;;18.27;50.52;101126.84;5015547;28;20421;-73
2022/02/04 01:43:41;;;;;;;7.28;4.70;;;;;;;18.27;50.69;101132.97;5014741;28;20555;-73
2022/02/04 01:46:09;;;;;;;6.55;4.03;;;;;;;18.23;50.51;101135.94;5015332;28;20034;-73
2022/02/04 01:48:36;;;;;;;7.13;4.60;;;;;;;18.24;50.36;101129.72;5014847;28;20038;-73
2022/02/04 01:51:06;;;;;;;10.20;4.70;;;;;;;18.23;50.37;101128.91;5015403;28;20029;-73
2022/02/04 01:53:35;;;;;;;7.53;4.30;;;;;;;18.22;50.31;101121.94;5015176;28;20100;-73
2022/02/04 01:56:04;;;;;;;6.28;4.03;;;;;;;18.22;50.31;101127.22;5014894;28;20032;-73
2022/02/04 01:58:29;;;;;;;5.97;4.13;;;;;;;18.19;50.48;101116.88;5015078;28;20164;-73
2022/02/04 02:00:55;;;;;;;5.97;4.35;;;;;;;18.21;50.21;101122.03;5014983;28;20061;-73
2022/02/04 02:03:22;;;;;;;6.80;3.88;;;;;;;18.20;50.11;101123.00;5014255;28;20096;-73
2022/02/04 02:05:52;;;;;;;6.75;3.80;;;;;;;18.18;50.29;101114.38;5015069;28;20038;-73
2022/02/04 02:08:19;;;;;;;6.43;4.15;;;;;;;18.17;50.54;101121.47;5014719;28;20041;-73
2022/02/04 02:10:47;;;;;;;6.68;3.90;;;;;;;18.17;50.28;101121.47;5014736;28;20099;-73
2022/02/04 02:45:54;;;;;;;5.90;3.78;;;;;;;18.04;50.23;101094.31;5013767;28;20030;-71
2022/02/04 02:53:53;;;;;;;6.83;4.00;;;;;;;18.01;50.25;101078.72;5013828;28;20109;-72
2022/02/04 02:56:54;;;;;;;7.05;3.95;;;;;;;18.00;50.16;101067.34;5013916;28;20429;-72
2022/02/04 02:59:14;;;;;;;6.40;3.50;;;;;;;17.99;50.15;101073.59;5013341;28;20026;-72
2022/02/04 03:01:46;;;;;;;6.85;3.78;;;;;;;17.98;50.04;101071.09;5014002;28;20068;-72
2022/02/04 03:04:15;;;;;;;5.40;3.47;;;;;;;17.98;50.41;101066.66;5013793;28;20517;-72
2022/02/04 03:06:41;;;;;;;6.72;3.80;;;;;;;17.98;50.37;101071.09;5013561;28;20033;-71
2022/02/04 03:09:09;;;;;;;5.63;3.58;;;;;;;17.97;50.20;101064.94;5013954;28;20021;-71
2022/02/04 03:11:34;;;;;;;5.65;3.30;;;;;;;17.95;50.07;101061.59;5013774;28;20038;-72
2022/02/04 03:14:00;;;;;;;6.38;3.80;;;;;;;17.94;50.13;101062.56;5013339;28;20028;-72
2022/02/04 03:16:25;;;;;;;6.65;3.88;;;;;;;17.93;50.15;101056.44;5013347;28;20442;-72
2022/02/04 03:18:53;;;;;;;5.75;3.53;;;;;;;17.93;50.50;101058.25;5013766;28;20103;-72
2022/02/04 03:21:25;;;;;;;5.28;3.13;;;;;;;17.92;50.29;101059.19;5013104;28;20022;-72
2022/02/04 03:23:56;;;;;;;7.65;3.47;;;;;;;17.92;50.17;101057.41;5013830;28;20049;-72
2022/02/04 03:27:09;;;;;;;8.18;3.65;;;;;;;17.91;50.31;101061.00;5013380;28;20018;-72
2022/02/04 03:29:07;;;;;;;6.57;3.72;;;;;;;17.91;50.28;101063.66;5012108;28;20042;-73
2022/02/04 03:31:38;;;;;;;5.63;3.70;;;;;;;17.90;50.14;101061.13;5013360;28;20024;-73
2022/02/04 03:34:04;;;;;;;6.20;3.25;;;;;;;17.90;50.65;101055.84;5012711;28;20072;-72
2022/02/04 03:36:30;;;;;;;7.20;3.50;;;;;;;17.90;50.51;101061.13;5013119;28;20080;-72
2022/02/04 03:38:55;;;;;;;6.80;3.42;;;;;;;17.90;50.89;101047.94;5013290;28;20029;-72
2022/02/04 03:41:21;;;;;;;9.10;4.63;;;;;;;17.90;50.88;101042.66;5012555;28;20024;-72
2022/02/04 03:43:46;;;;;;;6.20;3.42;;;;;;;17.93;50.96;101039.78;5013008;28;20054;-72
2022/02/04 03:46:11;;;;;;;5.80;3.08;;;;;;;17.95;51.37;101028.16;5013067;28;20121;-72
2022/02/04 03:48:37;;;;;;;6.47;3.50;;;;;;;17.97;50.94;101043.84;5012994;28;20466;-72
2022/02/04 03:51:02;;;;;;;6.82;3.30;;;;;;;17.99;50.79;101034.06;5013507;28;20061;-72
2022/02/04 03:53:28;;;;;;;6.03;3.03;;;;;;;18.01;50.99;101036.53;5012790;28;20026;-72
2022/02/04 03:55:56;;;;;;;5.43;3.10;;;;;;;18.04;51.07;101039.81;5012665;28;20018;-73
2022/02/04 03:58:21;;;;;;;6.03;3.35;;;;;;;18.05;50.57;101038.81;5012643;28;20459;-72
2022/02/04 04:03:40;;;;;;;6.00;3.40;;;;;;;18.06;50.60;101011.50;5012609;28;20044;-73
2022/02/04 04:06:07;;;;;;;5.38;2.92;;;;;;;18.10;50.39;101020.00;5012947;28;20048;-73
2022/02/04 04:08:32;;;;;;;5.35;3.20;;;;;;;18.09;50.48;101020.97;5012858;28;20077;-72
2022/02/04 04:10:57;;;;;;;6.10;3.05;;;;;;;18.09;50.52;101013.06;5012722;28;20022;-72
2022/02/04 04:13:23;;;;;;;5.55;2.70;;;;;;;18.10;50.36;101010.31;5012575;28;20032;-72
2022/02/04 04:15:48;;;;;;;5.60;3.28;;;;;;;18.10;50.63;101009.47;5012995;28;20084;-72
2022/02/04 04:18:17;;;;;;;6.60;3.28;;;;;;;18.10;50.47;101012.94;5012011;28;20042;-72
2022/02/04 04:20:44;;;;;;;6.55;3.08;;;;;;;18.10;50.59;101010.31;5012560;28;20026;-71
2022/02/04 04:23:10;;;;;;;5.85;3.10;;;;;;;18.10;50.51;101012.94;5012362;28;20025;-71
2022/02/04 04:25:37;;;;;;;7.05;3.20;;;;;;;18.10;50.60;101014.72;5012443;28;20040;-72
2022/02/04 04:28:02;;;;;;;7.70;3.03;;;;;;;18.08;50.03;101006.94;5012788;28;20117;-72
2022/02/04 04:30:27;;;;;;;4.93;2.65;;;;;;;18.08;49.94;101017.50;5011831;28;20117;-72
2022/02/04 04:32:56;;;;;;;6.53;2.78;;;;;;;18.08;49.68;101014.03;5012824;28;20034;-72
2022/02/04 04:35:27;;;;;;;6.30;2.70;;;;;;;18.07;50.35;101018.47;5012183;28;20106;-72
2022/02/04 04:38:07;;;;;;;5.18;2.80;;;;;;;18.08;50.55;101014.84;5012105;28;20022;-72
2022/02/04 05:27:20;;;;;;;5.03;2.25;;;;;;;18.09;49.84;100986.69;5015226;28;20068;-72
2022/02/04 05:29:27;;;;;;;4.60;2.08;;;;;;;18.07;49.84;100976.28;5015360;28;20069;-72
2022/02/04 05:31:52;;;;;;;4.72;2.25;;;;;;;18.08;50.42;100980.56;5015362;28;20621;-72
2022/02/04 05:34:21;;;;;;;4.90;1.70;;;;;;;18.10;50.14;100977.81;5015053;28;20033;-72
2022/02/04 05:36:54;;;;;;;5.05;2.08;;;;;;;18.10;50.65;100976.03;5015552;28;20280;-72
2022/02/04 05:39:26;;;;;;;4.90;1.90;;;;;;;18.08;50.63;100975.28;5015091;28;20052;-72
2022/02/04 05:41:52;;;;;;;7.63;2.15;;;;;;;18.10;50.24;100983.94;5014990;28;20080;-72
2022/02/04 05:44:17;;;;;;;6.47;2.00;;;;;;;18.10;50.14;100976.03;5015103;28;20042;-72
2022/02/04 05:46:58;;;;;;;5.40;1.77;;;;;;;18.08;50.09;100974.47;5015267;28;20318;-72
2022/02/04 05:49:26;;;;;;;5.00;2.10;;;;;;;18.12;50.34;100974.09;5014767;28;20128;-72
2022/02/04 05:52:12;;;;;;;4.40;1.92;;;;;;;18.13;50.19;100978.44;5015040;28;20481;-72
2022/02/04 05:54:49;;;;;;;3.85;1.77;;;;;;;18.14;49.80;100984.53;5015355;28;20038;-71
2022/02/04 05:57:21;;;;;;;4.93;2.08;;;;;;;18.13;50.20;100982.84;5014679;28;20034;-71
2022/02/04 06:13:37;;;;;;;;;;;;;;;18.15;51.16;100965.13;5015400;28;20295;-71
2022/02/04 06:24:15;;;;;;;6.00;1.70;;;;;;;18.26;51.77;100948.41;5014033;28;20107;-72
2022/02/04 06:26:40;;;;;;;4.27;1.70;;;;;;;18.29;51.70;100948.16;5014634;28;20030;-71
2022/02/04 06:29:07;;;;;;;7.28;1.65;;;;;;;18.30;51.77;100955.97;5014985;28;20738;-72
2022/02/04 06:31:32;;;;;;;4.68;1.70;;;;;;;18.33;51.78;100946.13;5014114;28;20403;-73
2022/02/04 06:33:58;;;;;;;4.47;1.55;;;;;;;18.36;51.62;100953.78;5014766;28;20042;-71
2022/02/04 06:36:24;;;;;;;5.07;1.70;;;;;;;18.37;52.07;100956.28;5014334;28;20033;-72
2022/02/04 06:38:49;;;;;;;3.85;1.30;;;;;;;18.38;52.07;100963.25;5014336;28;20022;-72
2022/02/04 06:41:14;;;;;;;5.88;1.70;;;;;;;18.41;51.92;100962.19;5014818;28;20386;-72
2022/02/04 06:43:40;;;;;;;4.68;1.35;;;;;;;18.42;51.97;100966.47;5014755;28;20042;-71
2022/02/04 06:46:05;;;;;;;6.67;1.63;;;;;;;18.43;51.70;100963.72;5014398;28;20022;-73
2022/02/04 06:48:30;;;;;;;4.50;1.40;;;;;;;18.45;51.95;100972.38;5013913;28;20373;-73
2022/02/04 06:50:58;;;;;;;4.22;1.40;;;;;;;18.48;52.23;100971.28;5019868;28;20283;-73
2022/02/04 06:53:23;;;;;;;4.63;1.40;;;;;;;18.48;52.13;100966.84;5013701;28;20089;-73
2022/02/04 06:55:49;;;;;;;4.32;1.48;;;;;;;18.52;52.37;100961.28;5015180;28;20478;-73
2022/02/04 06:58:15;;;;;;;5.70;1.42;;;;;;;18.52;52.31;100970.06;5017701;28;20090;-73
2022/02/04 07:00:41;;;;;;;5.25;1.60;;;;;;;18.54;52.16;100965.50;5020133;28;20117;-72
2022/02/04 07:03:07;;;;;;;3.92;1.30;;;;;;;18.54;51.97;100965.50;5019967;28;20168;-72
2022/02/04 07:05:40;;;;;;;4.43;1.30;;;;;;;18.55;52.32;100959.28;5019806;28;20073;-72
2022/02/04 07:08:13;;;;;;;5.25;1.33;;;;;;;18.58;52.37;100961.66;5024771;28;20029;-72
2022/02/04 07:13:40;;;;;;;3.55;1.30;;;;;;;18.60;51.97;100961.53;5022498;28;20034;-73
2022/02/04 07:21:34;;;;;;;4.03;1.20;;;;;;;18.64;52.25;100950.59;5019261;28;20037;-72
2022/02/04 07:23:59;;;;;;;3.67;1.20;;;;;;;18.66;52.33;100945.19;5020421;28;20045;-72
2022/02/04 07:26:30;;;;;;;4.07;1.15;;;;;;;18.66;52.28;100945.19;5013012;28;20025;-72
2022/02/04 07:29:00;;;;;;;4.40;1.23;;;;;;;18.66;52.01;100946.03;5013928;28;20505;-72
2022/02/04 07:31:30;;;;;;;3.15;1.23;;;;;;;18.68;51.92;100949.38;5013084;28;20172;-72
2022/02/04 07:34:11;;;;;;;3.53;1.40;;;;;;;18.69;51.71;100947.56;5013237;28;20461;-72
2022/02/04 07:41:47;;;;;;;2.90;1.30;;;;;;;18.71;52.14;100929.81;5013018;28;20570;-72
2022/02/04 07:44:13;;;;;;;5.13;1.38;;;;;;;18.72;51.82;100928.84;5012940;28;20290;-71
2022/02/04 07:46:41;;;;;;;3.08;1.38;;;;;;;18.73;51.71;100921.78;5013383;28;20398;-71
2022/02/04 07:49:07;;;;;;;4.03;1.50;;;;;;;18.73;51.68;100932.34;5012903;28;20159;-72
2022/02/04 07:51:34;;;;;;;4.60;1.30;;;;;;;18.74;51.40;100918.16;5012875;28;20109;-72
2022/02/04 07:53:59;;;;;;;3.50;1.60;;;;;;;18.72;50.23;100912.16;5013613;28;20043;-71
2022/02/04 07:56:28;;;;;;;4.00;1.20;;;;;;;18.74;50.73;100916.38;5012502;28;20033;-71
2022/02/04 07:58:58;;;;;;;2.50;1.00;;;;;;;18.75;51.12;100910.09;5013541;28;20092;-70
2022/02/04 08:01:30;;;;;;;2.63;1.10;;;;;;;18.77;51.08;100902.91;5012358;28;20108;-72
2022/02/04 08:04:14;;;;;;;3.83;1.20;;;;;;;18.80;51.15;100897.38;5013041;28;20033;-72
2022/02/04 08:06:45;;;;;;;5.80;1.20;;;;;;;18.83;51.28;100902.41;5013065;28;20026;-71
2022/02/04 08:09:21;;;;;;;2.88;1.20;;;;;;;18.85;51.61;100889.94;5012593;28;20116;-70
2022/02/04 08:12:13;;;;;;;3.25;1.17;;;;;;;18.86;51.29;100898.69;5013205;28;20029;-75
2022/02/04 08:27:46;;;;;;;3.00;1.05;;;;;;;18.93;51.38;100891.09;5012368;28;20034;-73
2022/02/04 08:36:04;;;;;;;4.32;1.20;;;;;;;18.92;51.54;100889.44;5012453;28;20026;-72
2022/02/04 08:51:45;;;;;;;5.60;1.23;;;;;;;18.93;52.05;100872.59;5011586;28;20030;-69
2022/02/04 08:54:20;;;;;;;2.83;1.10;;;;;;;18.93;51.84;100867.31;5011903;28;20096;-70
2022/02/04 09:00:00;;;;;;;3.67;1.10;;;;;;;18.94;51.54;100875.09;5011813;28;20042;-71
2022/02/04 09:04:58;;;;;;;4.38;1.30;;;;;;;18.93;51.94;100878.72;5011200;28;20057;-70
2022/02/04 09:07:28;;;;;;;5.20;1.30;;;;;;;18.94;51.68;100875.09;5012985;28;20036;-71
2022/02/04 09:09:57;;;;;;;4.72;1.20;;;;;;;18.95;51.72;100881.25;5013442;28;20022;-73
2022/02/04 09:20:31;;;;;;;7.05;1.38;;;;;;;18.97;51.78;100851.09;5012963;28;20522;-70
2022/02/04 09:22:57;;;;;;;3.00;1.10;;;;;;;18.96;51.83;100851.22;5012861;28;20466;-69
2022/02/04 09:25:22;;;;;;;2.92;1.10;;;;;;;18.97;52.14;100844.97;5012956;28;20030;-71
2022/02/04 09:27:48;;;;;;;5.68;1.10;;;;;;;18.96;51.84;100838.00;5011858;28;20080;-69
2022/02/04 09:30:18;;;;;;;6.85;1.40;;;;;;;18.96;51.65;100848.56;5012014;28;20034;-70
2022/02/04 09:32:44;;;;;;;6.72;1.30;;;;;;;18.94;52.13;100832.84;5013492;28;20092;-68
2022/02/04 09:35:14;;;;;;;5.47;1.30;;;;;;;18.97;51.96;100831.78;5014976;28;20421;-68
2022/02/04 09:37:41;;;;;;;4.07;1.00;;;;;;;18.95;52.04;100826.63;5015518;28;20564;-68
2022/02/04 09:40:07;;;;;;;3.97;1.27;;;;;;;18.97;51.88;100824.66;5015138;28;20022;-68
2022/02/04 09:42:33;;;;;;;4.53;1.20;;;;;;;18.97;52.09;100826.47;5015334;28;20046;-67
2022/02/04 09:44:59;;;;;;;4.63;1.35;;;;;;;18.97;51.88;100814.09;5015384;28;20125;-68
2022/02/04 09:47:26;;;;;;;6.07;1.40;;;;;;;18.97;51.94;100808.81;5014844;28;20072;-68
2022/02/04 09:49:59;;;;;;;4.15;1.02;;;;;;;18.98;51.82;100814.97;5015476;28;20030;-69
2022/02/04 10:14:36;;;;;;;4.35;1.08;;;;;;;18.99;52.27;100811.34;5016112;28;20046;-69
2022/02/04 10:17:16;;;;;;;4.60;1.13;;;;;;;18.97;51.97;100797.44;5014744;28;20042;-70
2022/02/04 10:22:21;;;;;;;5.65;1.38;;;;;;;18.97;50.90;100789.50;5015147;28;20049;-71
2022/02/04 10:25:14;;;;;;;4.78;1.20;;;;;;;18.97;51.72;100792.16;5015543;28;20164;-70
2022/02/04 10:27:41;;;;;;;3.80;1.20;;;;;;;18.97;51.94;100792.16;5015072;28;20505;-69
2022/02/04 10:30:09;;;;;;;6.45;1.20;;;;;;;18.98;51.99;100775.34;5014833;28;20478;-69
2022/02/04 10:32:34;;;;;;;5.32;1.80;;;;;;;18.98;52.20;100780.63;5015331;28;20116;-69
2022/02/04 10:35:25;;;;;;;3.77;1.30;;;;;;;18.98;51.59;100772.72;5015635;28;20076;-68
2022/02/04 10:49:08;;;;;;;3.45;1.00;;;;;;;19.02;51.89;100750.31;5016912;28;20026;-72
2022/02/04 10:57:41;;;;;;;3.85;1.17;;;;;;;19.02;51.49;100737.94;5016304;28;20643;-72
2022/02/04 11:00:05;;;;;;;3.38;1.10;;;;;;;19.03;51.58;100728.25;5017361;28;20073;-72
2022/02/04 11:02:38;;;;;;;7.03;1.20;;;;;;;19.03;51.60;100713.22;5015685;28;20394;-72
2022/02/04 11:05:28;;;;;;;3.63;1.10;;;;;;;19.00;52.15;100716.13;5015309;28;20080;-70
2022/02/04 11:11:05;;;;;;;;;;;;;;;19.02;52.28;100713.34;5017067;28;20143;-72
2022/02/04 11:35:58;;;;;;;4.57;1.20;;;;;;;19.04;51.70;100613.69;5018451;28;20379;-73
2022/02/04 11:47:55;;;;;;;5.07;1.00;;;;;;;19.05;51.96;100594.25;5015563;28;20057;-73
2022/02/04 11:53:32;;;;;;;3.47;1.10;;;;;;;19.06;51.62;100595.91;5016082;28;20618;-72
2022/02/04 11:55:59;;;;;;;4.15;0.98;;;;;;;19.06;50.84;100573.94;5015801;28;20026;-71
2022/02/04 11:58:27;;;;;;;3.03;0.95;;;;;;;19.05;51.68;100570.47;5013830;28;20501;-71
2022/02/04 12:01:04;;;;;;;4.38;1.17;;;;;;;19.06;51.54;100571.28;5013995;28;20038;-71
2022/02/04 12:03:36;;;;;;;3.95;1.40;;;;;;;19.07;51.81;100562.41;5013710;28;20084;-73
2022/02/04 12:06:03;;;;;;;3.55;1.00;;;;;;;19.06;51.76;100556.31;5014523;28;20029;-73
2022/02/04 12:08:31;;;;;;;5.47;1.33;;;;;;;19.07;51.97;100562.41;5013982;28;20026;-72
2022/02/04 12:10:59;;;;;;;4.93;1.23;;;;;;;19.07;51.90;100559.75;5013744;28;20030;-73
2022/02/04 12:13:25;;;;;;;2.97;1.10;;;;;;;19.07;51.65;100552.66;5013668;28;20042;-71
2022/02/04 12:15:57;;;;;;;5.40;1.20;;;;;;;19.07;51.57;100552.66;5013795;28;20029;-74
2022/02/04 12:18:34;;;;;;;5.28;1.30;;;;;;;19.08;51.86;100537.69;5013501;28;20033;-72
2022/02/04 12:21:07;;;;;;;4.57;1.30;;;;;;;19.07;51.81;100542.09;5014888;28;20022;-70
2022/02/04 12:23:33;;;;;;;3.28;1.15;;;;;;;19.08;51.84;100538.50;5012776;28;20466;-76
2022/02/04 12:26:04;;;;;;;4.78;1.30;;;;;;;19.08;51.56;100533.22;5012797;28;20113;-70
2022/02/04 12:28:51;;;;;;;5.75;1.35;;;;;;;19.08;51.63;100527.94;5012379;28;20050;-71
2022/02/04 12:31:26;;;;;;;7.47;1.60;;;;;;;19.08;51.88;100512.09;5012351;28;20064;-70
2022/02/04 12:33:57;;;;;;;5.22;1.10;;;;;;;19.08;51.59;100517.38;5016419;28;20064;-70
2022/02/04 12:36:43;;;;;;;7.90;1.30;;;;;;;19.16;51.02;100514.88;5019941;28;20370;-71
2022/02/04 12:39:22;;;;;;;8.50;1.67;;;;;;;19.30;50.96;100508.31;5020801;28;20485;-72
2022/02/04 12:41:51;;;;;;;4.78;1.45;;;;;;;19.39;50.61;100494.28;5022149;28;20083;-73
2022/02/04 12:44:21;;;;;;;4.85;1.90;;;;;;;19.50;50.24;100497.72;5025639;28;20050;-74
2022/02/04 12:46:50;;;;;;;5.45;1.27;;;;;;;19.58;49.82;100495.19;5023032;28;20030;-76
2022/02/04 12:49:17;;;;;;;4.30;1.23;;;;;;;19.65;49.63;100498.13;5022058;28;20045;-69
2022/02/04 12:54:30;;;;;;;4.80;1.67;;;;;;;19.62;48.27;100487.84;5012424;28;20430;-67
2022/02/04 13:02:52;;;;;;;7.05;1.50;;;;;;;19.40;50.13;100477.44;5013086;28;20038;-68
2022/02/04 13:10:38;;;;;;;4.55;1.17;;;;;;;19.30;49.73;100438.81;5016342;28;20425;-68
2022/02/04 13:13:07;;;;;;;6.65;1.42;;;;;;;19.28;50.29;100449.53;5015816;28;20117;-68
2022/02/04 13:15:37;;;;;;;4.57;1.20;;;;;;;19.26;50.27;100432.97;5015844;28;20068;-67
2022/02/04 13:18:08;;;;;;;4.63;1.30;;;;;;;19.24;50.37;100428.81;5015521;28;20095;-67
2022/02/04 13:20:35;;;;;;;5.22;1.40;;;;;;;19.22;50.53;100431.59;5015684;28;20021;-67
2022/02/04 13:23:05;;;;;;;5.03;1.45;;;;;;;19.22;50.47;100423.66;5016187;28;20096;-67
2022/02/04 13:25:34;;;;;;;5.28;1.27;;;;;;;19.20;50.51;100409.75;5015218;28;20022;-67
2022/02/04 13:28:15;;;;;;;6.00;1.38;;;;;;;19.16;50.41;100424.22;5015511;28;20050;-67
2022/02/04 13:31:00;;;;;;;5.40;1.25;;;;;;;19.15;50.35;100407.56;5015876;28;20060;-67
2022/02/04 13:33:30;;;;;;;6.40;1.48;;;;;;;19.16;50.25;100418.94;5015298;28;20048;-67
2022/02/04 13:36:01;;;;;;;5.05;1.40;;;;;;;19.16;49.89;100416.31;5015816;28;20026;-68
2022/02/04 13:38:46;;;;;;;5.35;1.23;;;;;;;19.14;50.10;100418.25;5015591;28;20049;-68
2022/02/04 13:41:30;;;;;;;3.92;1.33;;;;;;;19.14;50.65;100412.97;5015040;28;20030;-68
2022/02/04 13:45:30;;;;;;;5.00;1.35;;;;;;;19.12;50.55;100412.25;5015496;28;20132;-69
2022/02/04 13:47:33;;;;;;;4.25;1.65;;;;;;;19.11;50.31;100407.97;5009682;28;20543;-68
2022/02/04 13:58:37;;;;;;;4.72;1.42;;;;;;;19.09;50.31;100378.22;5015328;28;20128;-68
2022/02/04 14:01:17;;;;;;;3.55;1.20;;;;;;;19.07;50.10;100369.59;5015061;28;20045;-68
2022/02/04 14:03:49;;;;;;;7.82;1.50;;;;;;;19.08;50.14;100384.50;5015349;28;20030;-68
2022/02/04 14:06:18;;;;;;;4.88;1.25;;;;;;;19.08;50.41;100381.84;5015053;28;20374;-68
2022/02/04 14:11:41;;;;;;;9.43;1.63;;;;;;;19.10;50.59;100375.44;5019024;28;20042;-69
2022/02/04 14:14:20;;;;;;;4.25;1.20;;;;;;;19.19;50.57;100373.75;5020891;28;20405;-69
2022/02/04 14:17:25;;;;;;;6.20;1.52;;;;;;;19.30;50.24;100376.22;5022674;28;20038;-71
2022/02/04 14:19:50;;;;;;;5.90;2.00;;;;;;;19.42;49.65;100376.03;5027071;28;20041;-68
2022/02/04 14:22:15;;;;;;;6.87;1.60;;;;;;;19.46;49.42;100383.53;5021246;28;20275;-68
2022/02/04 14:24:40;;;;;;;6.93;1.60;;;;;;;19.49;49.39;100385.91;5021338;28;20283;-71
2022/02/04 14:27:06;;;;;;;6.05;1.40;;;;;;;19.51;49.21;100386.59;5020577;28;20044;-70
2022/02/04 14:29:43;;;;;;;5.38;1.67;;;;;;;19.56;48.87;100372.94;5018995;28;20030;-68
2022/02/04 14:32:19;;;;;;;5.85;2.13;;;;;;;19.61;49.05;100373.31;5020020;28;20108;-70
2022/02/04 14:37:51;;;;;;;6.60;1.60;;;;;;;19.64;49.12;100357.16;5021365;28;19921;-73
2022/02/04 14:54:17;;;;;;;4.63;1.17;;;;;;;19.78;49.04;100395.56;5021706;28;20099;-71
2022/02/04 15:01:58;;;;;;;4.15;1.13;;;;;;;19.87;48.35;100474.00;5020528;28;20026;-70
2022/02/04 15:04:48;;;;;;;5.93;1.60;;;;;;;19.88;47.67;100475.66;5020261;28;20045;-72
2022/02/04 15:07:13;;;;;;;4.93;1.20;;;;;;;19.88;48.01;100511.84;5021604;28;20072;-71
2022/02/04 15:09:50;;;;;;;5.40;1.20;;;;;;;19.86;48.18;100527.03;5021610;28;20056;-70
2022/02/04 15:12:16;;;;;;;3.60;1.10;;;;;;;19.85;48.16;100544.72;5019710;28;20549;-72
2022/02/04 15:14:41;;;;;;;;;;;;;;;19.85;47.66;100559.75;5022932;28;19914;-72
2022/02/04 15:17:06;;;;;;;;;;;;;;;19.85;48.03;100570.31;5021118;28;19959;-73
2022/02/04 15:19:34;;;;;;;;;;;;;;;19.82;47.87;100560.88;5020107;28;19913;-66
2022/02/04 15:22:01;;;;;;;4.95;1.00;;;;;;;19.78;47.54;100591.22;5020762;28;20245;-72
2022/02/04 15:24:26;;;;;;;6.70;1.02;;;;;;;19.77;48.05;100586.88;5021189;28;20037;-71
2022/02/04 15:26:52;;;;;;;7.65;1.17;;;;;;;19.78;48.37;100606.25;5020503;28;20038;-71
2022/02/04 15:29:18;;;;;;;4.93;1.10;;;;;;;19.79;48.01;100614.03;5022338;28;20485;-75
2022/02/04 15:31:48;;;;;;;4.65;1.00;;;;;;;19.82;47.77;100628.78;5025004;28;20030;-74
2022/02/04 15:34:15;;;;;;;4.35;0.90;;;;;;;19.85;47.89;100654.94;5024511;28;20037;-70
2022/02/04 15:36:44;;;;;;;5.15;1.30;;;;;;;19.86;47.92;100656.63;5021512;28;20025;-69
2022/02/04 15:39:14;;;;;;;3.88;0.88;;;;;;;19.86;47.50;100664.56;5021725;28;20097;-71
2022/02/04 15:41:40;;;;;;;6.68;0.98;;;;;;;19.88;47.19;100670.53;5019932;28;20038;-69
2022/02/04 15:44:19;;;;;;;5.53;1.25;;;;;;;19.86;47.29;100683.88;5020085;28;20466;-69
2022/02/04 15:54:54;;;;;;;5.03;0.90;;;;;;;19.83;47.27;100723.84;5019987;28;20024;-70
2022/02/04 16:04:46;;;;;;;3.08;0.77;;;;;;;19.71;46.25;100767.22;5020581;28;20053;-69
2022/02/04 16:07:17;;;;;;;2.78;0.80;;;;;;;19.71;46.63;100772.50;5021325;28;20056;-75
2022/02/04 16:09:43;;;;;;;2.00;0.63;;;;;;;19.70;46.71;100781.41;5021975;28;20089;-76
2022/02/04 16:12:20;;;;;;;4.57;0.90;;;;;;;19.70;46.97;100789.34;5023199;28;20046;-76
2022/02/04 16:14:55;;;;;;;3.85;0.98;;;;;;;19.72;47.09;100795.31;5022357;28;20029;-76
2022/02/04 16:20:18;;;;;;;4.00;0.77;;;;;;;19.70;46.63;100808.69;5020348;28;20101;-69
2022/02/04 16:31:03;;;;;;;6.32;1.00;;;;;;;19.72;46.50;100846.41;5020101;28;20041;-73
2022/02/04 16:33:29;;;;;;;4.30;0.98;;;;;;;19.69;46.31;100853.75;5018238;28;20104;-69
2022/02/04 16:36:03;;;;;;;4.30;0.88;;;;;;;19.70;46.41;100873.97;5018640;28;20500;-73
2022/02/04 16:38:31;;;;;;;4.13;1.15;;;;;;;19.64;46.70;100880.59;5019049;28;20044;-71
2022/02/04 16:41:03;;;;;;;3.67;2.00;;;;;;;19.68;46.71;100891.78;5019395;28;20129;-73
2022/02/04 16:43:30;;;;;;;6.15;4.25;;;;;;;19.65;46.82;100886.75;5024040;28;20046;-70
2022/02/04 16:45:55;;;;;;;9.10;4.95;;;;;;;19.66;46.65;100906.91;5024956;28;20037;-69
2022/02/04 16:48:21;;;;;;;8.48;6.20;;;;;;;19.70;46.57;100913.63;5026193;28;20355;-69
2022/02/04 16:50:50;;;;;;;7.07;6.35;;;;;;;19.71;46.47;100925.84;5022444;28;20057;-69
2022/02/04 16:53:15;;;;;;;7.90;7.10;;;;;;;19.68;46.44;100932.25;5023203;28;20038;-71
2022/02/04 16:55:41;;;;;;;8.88;8.07;;;;;;;19.66;46.89;100947.44;5023016;28;20379;-70
2022/02/04 16:58:07;;;;;;;21.42;14.90;;;;;;;19.62;47.72;100956.56;5020467;28;20042;-71
2022/02/04 17:00:33;;;;;;;18.60;12.90;;;;;;;19.62;48.34;100956.56;5022336;28;20018;-72
2022/02/04 17:03:01;;;;;;;15.38;11.13;;;;;;;19.64;48.36;100977.59;5021765;28;20458;-71
2022/02/04 17:05:36;;;;;;;12.38;9.57;;;;;;;19.65;48.79;100981.94;5022307;28;20030;-72
2022/02/04 17:08:07;;;;;;;14.15;8.88;;;;;;;19.67;48.50;100991.38;5023005;28;20029;-71
2022/02/04 17:10:33;;;;;;;12.48;8.65;;;;;;;19.68;48.49;101003.66;5021690;28;20080;-68
2022/02/04 17:13:02;;;;;;;13.77;8.13;;;;;;;19.69;48.54;101012.41;5021289;28;20037;-67
2022/02/04 17:15:29;;;;;;;10.48;6.68;;;;;;;19.70;47.03;101011.44;5022496;28;20034;-72
2022/02/04 17:17:56;;;;;;;;;;;;;;;19.74;47.95;101019.00;5021853;28;20088;-68
2022/02/04 17:20:22;;;;;;;;;;;;;;;19.81;47.75;101024.63;5020792;28;19913;-74
2022/02/04 17:23:01;;;;;;;;;;;;;;;19.89;47.70;101031.91;5028678;28;19913;-74
2022/02/04 17:25:27;;;;;;;;;;;;;;;19.96;47.58;101034.84;5028972;28;20085;-72
2022/02/04 17:27:54;;;;;;;8.40;5.20;;;;;;;20.05;47.52;101044.66;5023574;28;19972;-72
2022/02/04 17:30:20;;;;;;;9.57;4.72;;;;;;;20.10;47.43;101039.78;5022814;28;20034;-71
2022/02/04 17:32:46;;;;;;;7.00;4.55;;;;;;;20.16;47.42;101056.94;5025088;28;20030;-73
2022/02/04 17:35:25;;;;;;;;;;;;;;;20.20;47.71;101061.84;5021900;28;20018;-72
2022/02/04 17:37:54;;;;;;;12.32;4.60;;;;;;;20.24;47.32;101057.13;5021423;28;20369;-71
2022/02/04 17:40:25;;;;;;;7.18;3.95;;;;;;;20.26;46.57;101063.09;5021998;28;20062;-71
2022/02/04 17:42:51;;;;;;;7.97;3.75;;;;;;;20.27;46.61;101081.50;5024317;28;20085;-72
2022/02/04 17:45:22;;;;;;;9.60;3.83;;;;;;;20.27;46.48;101092.09;5020356;28;20459;-68
2022/02/04 17:48:03;;;;;;;8.35;2.97;;;;;;;20.28;46.62;101099.06;5021047;28;20030;-70
2022/02/04 17:50:33;;;;;;;7.22;2.90;;;;;;;20.29;46.63;101111.31;5017972;28;20070;-65
2022/02/04 17:53:07;;;;;;;6.82;3.03;;;;;;;20.22;46.66;101104.88;5014450;28;20497;-68
2022/02/04 17:55:42;;;;;;;7.63;2.50;;;;;;;20.14;46.91;101098.56;5015091;28;20755;-69
2022/02/04 18:06:07;;;;;;;7.30;1.98;;;;;;;19.92;48.54;101132.97;5015506;28;20275;-70